createdAt,value
2023-08-14T00:00:35.281Z,100613.27
2023-08-14T00:01:37.516Z,100608.75
2023-08-14T00:02:39.734Z,100606.20
2023-08-14T00:03:41.865Z,100607.05
2023-08-14T00:04:44.009Z,100608.88
2023-08-14T00:05:46.168Z,100610.71
2023-08-14T00:06:48.430Z,100600.98
2023-08-14T00:07:50.480Z,100610.87
2023-08-14T00:08:52.675Z,100613.70
2023-08-14T00:09:54.897Z,100608.46
2023-08-14T00:10:57.267Z,100615.66
2023-08-14T00:12:01.822Z,100609.59
2023-08-14T00:13:04.240Z,100609.75
2023-08-14T00:14:06.394Z,100615.24
2023-08-14T00:15:09.326Z,100614.55
2023-08-14T00:16:11.832Z,100615.67
2023-08-14T00:17:13.946Z,100613.97
2023-08-14T00:18:16.154Z,100617.66
2023-08-14T00:19:18.274Z,100620.34
2023-08-14T00:20:20.466Z,100617.66
2023-08-14T00:21:23.548Z,100616.80
2023-08-14T00:22:25.906Z,100627.55
2023-08-14T00:23:28.164Z,100622.17
2023-08-14T00:24:30.322Z,100614.98
2023-08-14T00:25:32.505Z,100626.69
2023-08-14T00:26:34.801Z,100614.24
2023-08-14T00:27:37.409Z,100615.95
2023-08-14T00:28:39.728Z,100620.47
2023-08-14T00:29:43.113Z,100621.44
2023-08-14T00:30:45.500Z,100621.59
2023-08-14T00:31:47.984Z,100618.21
2023-08-14T00:32:50.195Z,100625.41
2023-08-14T00:33:52.368Z,100618.61
2023-08-14T00:34:54.456Z,100624.98
2023-08-14T00:35:56.509Z,100621.57
2023-08-14T00:36:58.978Z,100619.04
2023-08-14T00:38:01.097Z,100621.88
2023-08-14T00:39:03.901Z,100622.85
2023-08-14T00:40:07.875Z,100621.30
2023-08-14T00:41:09.944Z,100617.76
2023-08-14T00:42:12.138Z,100623.98
2023-08-14T00:43:14.895Z,100621.14
2023-08-14T00:44:17.052Z,100617.48
2023-08-14T00:45:19.713Z,100621.02
2023-08-14T00:46:25.410Z,100624.56
2023-08-14T00:47:27.743Z,100621.02
2023-08-14T00:48:30.897Z,100624.56
2023-08-14T00:49:33.568Z,100627.24
2023-08-14T00:50:35.888Z,100624.56
2023-08-14T00:51:38.202Z,100623.00
2023-08-14T00:52:45.367Z,100620.44
2023-08-14T00:53:47.519Z,100623.98
2023-08-14T00:54:49.681Z,100618.61
2023-08-14T00:55:52.065Z,100620.44
2023-08-14T00:56:54.408Z,100616.91
2023-08-14T00:57:57.145Z,100623.13
2023-08-14T00:58:59.640Z,100629.34
2023-08-14T01:00:03.539Z,100624.95
2023-08-14T01:01:06.742Z,100624.95
2023-08-14T01:02:09.176Z,100620.44
2023-08-14T01:03:11.875Z,100622.16
2023-08-14T01:04:14.013Z,100620.44
2023-08-14T01:05:16.742Z,100622.16
2023-08-14T01:06:19.246Z,100629.47
2023-08-14T01:07:21.878Z,100618.73
2023-08-14T01:08:24.257Z,100620.59
2023-08-14T01:09:26.338Z,100619.59
2023-08-14T01:10:44.162Z,100620.32
2023-08-14T01:13:05.170Z,100622.03
2023-08-14T01:14:20.124Z,100623.41
2023-08-14T01:16:40.751Z,100619.73
2023-08-14T01:17:46.996Z,100617.61
2023-08-14T01:18:52.518Z,100624.80
2023-08-14T01:19:56.924Z,100633.70
2023-08-14T01:21:18.238Z,100623.95
2023-08-14T01:22:33.382Z,100621.27
2023-08-14T01:23:57.572Z,100618.73
2023-08-14T01:25:26.147Z,100626.08
2023-08-14T01:26:29.329Z,100623.52
2023-08-14T01:27:31.745Z,100624.52
2023-08-14T01:28:33.947Z,100624.52
2023-08-14T01:29:36.219Z,100623.67
2023-08-14T01:30:38.456Z,100627.20
2023-08-14T01:31:40.625Z,100629.89
2023-08-14T01:32:43.016Z,100634.41
2023-08-14T01:33:45.241Z,100626.35
2023-08-14T01:34:47.453Z,100624.52
2023-08-14T01:37:21.983Z,100625.23
2023-08-14T01:38:30.839Z,100623.94
2023-08-14T01:41:05.777Z,100622.82
2023-08-14T01:42:11.732Z,100618.70
2023-08-14T01:44:33.752Z,100626.36
2023-08-14T01:45:36.725Z,100626.63
2023-08-14T01:46:40.116Z,100626.47
2023-08-14T01:47:43.411Z,100628.33
2023-08-14T01:48:47.312Z,100636.38
2023-08-14T01:49:50.284Z,100633.70
2023-08-14T01:50:54.077Z,100629.16
2023-08-14T01:51:56.640Z,100630.01
2023-08-14T01:52:58.897Z,100625.65
2023-08-14T01:54:01.318Z,100633.55
2023-08-14T01:55:03.731Z,100627.20
2023-08-14T01:56:06.288Z,100629.03
2023-08-14T01:57:08.654Z,100624.52
2023-08-14T01:58:11.123Z,100629.03
2023-08-14T01:59:13.269Z,100624.64
2023-08-14T02:00:15.649Z,100627.48
2023-08-14T02:01:19.894Z,100635.53
2023-08-14T02:02:22.230Z,100631.02
2023-08-14T02:03:24.631Z,100632.11
2023-08-14T02:04:27.026Z,100630.28
2023-08-14T02:05:29.903Z,100633.97
2023-08-14T02:06:32.166Z,100634.79
2023-08-14T02:07:34.328Z,100635.64
2023-08-14T02:08:36.484Z,100633.70
2023-08-14T02:09:38.954Z,100638.06
2023-08-14T02:10:41.204Z,100638.91
2023-08-14T02:11:43.368Z,100638.77
2023-08-14T02:12:45.524Z,100638.77
2023-08-14T02:13:47.743Z,100644.98
2023-08-14T02:14:49.937Z,100644.98
2023-08-14T02:15:54.033Z,100643.30
2023-08-14T02:16:57.389Z,100638.91
2023-08-14T02:17:59.553Z,100646.96
2023-08-14T02:19:01.741Z,100644.43
2023-08-14T02:20:05.206Z,100641.75
2023-08-14T02:21:07.548Z,100642.84
2023-08-14T02:22:09.651Z,100651.89
2023-08-14T02:23:11.801Z,100652.75
2023-08-14T02:24:14.269Z,100652.75
2023-08-14T02:25:16.399Z,100649.06
2023-08-14T02:26:18.688Z,100652.59
2023-08-14T02:27:20.946Z,100653.57
2023-08-14T02:28:23.233Z,100653.72
2023-08-14T02:29:25.265Z,100651.89
2023-08-14T02:30:27.482Z,100646.65
2023-08-14T02:31:30.180Z,100649.21
2023-08-14T02:32:32.409Z,100651.89
2023-08-14T02:33:34.596Z,100657.11
2023-08-14T02:34:46.389Z,100658.94
2023-08-14T02:35:48.670Z,100655.28
2023-08-14T02:36:51.420Z,100655.16
2023-08-14T02:37:54.563Z,100660.53
2023-08-14T02:38:56.873Z,100653.30
2023-08-14T02:39:59.049Z,100658.67
2023-08-14T02:41:03.121Z,100658.55
2023-08-14T02:42:05.492Z,100660.37
2023-08-14T02:43:08.690Z,100646.96
2023-08-14T02:44:11.296Z,100663.06
2023-08-14T02:45:13.496Z,100662.91
2023-08-14T02:46:16.925Z,100661.08
2023-08-14T02:47:19.200Z,100659.41
2023-08-14T02:48:21.505Z,100661.23
2023-08-14T02:49:23.695Z,100657.69
2023-08-14T02:50:26.049Z,100659.41
2023-08-14T02:51:28.183Z,100661.94
2023-08-14T02:52:30.342Z,100658.28
2023-08-14T02:53:32.595Z,100656.45
2023-08-14T02:54:34.858Z,100660.69
2023-08-14T02:55:36.987Z,100662.37
2023-08-14T02:56:39.375Z,100666.76
2023-08-14T02:57:41.535Z,100664.93
2023-08-14T02:58:43.893Z,100663.22
2023-08-14T02:59:46.156Z,100656.14
2023-08-14T03:00:49.588Z,100661.39
2023-08-14T03:01:51.910Z,100665.75
2023-08-14T03:02:54.177Z,100667.34
2023-08-14T03:03:56.732Z,100674.27
2023-08-14T03:04:58.890Z,100667.04
2023-08-14T03:06:00.941Z,100665.20
2023-08-14T03:07:03.375Z,100669.72
2023-08-14T03:08:05.977Z,100671.44
2023-08-14T03:09:08.343Z,100666.92
2023-08-14T03:10:11.269Z,100671.44
2023-08-14T03:11:13.570Z,100667.77
2023-08-14T03:12:15.842Z,100672.13
2023-08-14T03:13:18.098Z,100672.02
2023-08-14T03:14:20.382Z,100671.86
2023-08-14T03:15:22.725Z,100672.56
2023-08-14T03:16:25.142Z,100671.59
2023-08-14T03:17:27.252Z,100673.30
2023-08-14T03:18:29.394Z,100674.00
2023-08-14T03:19:31.698Z,100674.70
2023-08-14T03:20:34.219Z,100670.19
2023-08-14T03:21:37.911Z,100670.19
2023-08-14T03:22:40.502Z,100671.74
2023-08-14T03:23:42.641Z,100669.91
2023-08-14T03:24:44.795Z,100675.98
2023-08-14T03:25:47.055Z,100681.23
2023-08-14T03:26:49.630Z,100676.56
2023-08-14T03:27:53.527Z,100676.29
2023-08-14T03:28:56.911Z,100676.99
2023-08-14T03:29:59.177Z,100679.55
2023-08-14T03:31:02.487Z,100674.89
2023-08-14T03:32:05.844Z,100680.83
2023-08-14T03:33:08.039Z,100685.20
2023-08-14T03:34:10.612Z,100678.85
2023-08-14T03:35:13.335Z,100680.41
2023-08-14T03:36:16.823Z,100680.25
2023-08-14T03:37:18.984Z,100680.98
2023-08-14T03:38:21.960Z,100678.14
2023-08-14T03:39:24.424Z,100678.84
2023-08-14T03:40:27.199Z,100683.94
2023-08-14T03:41:29.526Z,100682.11
2023-08-14T03:42:32.941Z,100685.49
2023-08-14T03:43:35.106Z,100676.45
2023-08-14T03:44:37.636Z,100680.85
2023-08-14T03:45:39.805Z,100680.69
2023-08-14T03:46:42.197Z,100687.62
2023-08-14T03:47:44.463Z,100684.78
2023-08-14T03:48:47.016Z,100678.34
2023-08-14T03:49:49.038Z,100681.72
2023-08-14T03:50:51.644Z,100685.96
2023-08-14T03:51:53.795Z,100684.83
2023-08-14T03:52:56.670Z,100683.69
2023-08-14T03:53:59.132Z,100680.88
2023-08-14T03:55:01.403Z,100685.94
2023-08-14T03:56:03.965Z,100687.37
2023-08-14T03:57:06.216Z,100686.23
2023-08-14T03:58:08.386Z,100688.64
2023-08-14T03:59:10.636Z,100686.52
2023-08-14T04:00:15.078Z,100683.40
2023-08-14T04:01:18.229Z,100694.84
2023-08-14T04:02:21.647Z,100682.95
2023-08-14T04:03:24.122Z,100688.05
2023-08-14T04:04:26.350Z,100686.91
2023-08-14T04:05:28.603Z,100692.16
2023-08-14T04:06:31.041Z,100690.01
2023-08-14T04:07:33.533Z,100691.56
2023-08-14T04:08:35.693Z,100691.27
2023-08-14T04:09:37.945Z,100690.12
2023-08-14T04:10:40.826Z,100688.86
2023-08-14T04:11:42.945Z,100691.27
2023-08-14T04:12:44.828Z,100684.59
2023-08-14T04:13:46.882Z,100694.20
2023-08-14T04:14:52.420Z,100689.39
2023-08-14T04:15:54.897Z,100694.48
2023-08-14T04:16:57.563Z,100691.50
2023-08-14T04:17:59.653Z,100693.05
2023-08-14T04:19:01.776Z,100695.45
2023-08-14T04:20:05.468Z,100697.00
2023-08-14T04:21:07.825Z,100701.23
2023-08-14T04:22:10.203Z,100694.71
2023-08-14T04:23:12.340Z,100705.22
2023-08-14T04:24:14.681Z,100696.00
2023-08-14T04:25:16.864Z,100695.55
2023-08-14T04:26:19.335Z,100698.80
2023-08-14T04:27:21.562Z,100701.20
2023-08-14T04:28:23.926Z,100702.61
2023-08-14T04:29:26.314Z,100699.59
2023-08-14T04:30:28.682Z,100699.17
2023-08-14T04:31:30.880Z,100705.12
2023-08-14T04:32:34.057Z,100699.41
2023-08-14T04:33:37.091Z,100704.36
2023-08-14T04:34:39.649Z,100696.81
2023-08-14T04:35:41.924Z,100702.75
2023-08-14T04:36:44.396Z,100699.63
2023-08-14T04:37:48.248Z,100697.33
2023-08-14T04:38:50.241Z,100702.25
2023-08-14T04:39:53.176Z,100709.88
2023-08-14T04:40:55.751Z,100697.81
2023-08-14T04:41:58.754Z,100701.88
2023-08-14T04:43:03.072Z,100705.81
2023-08-14T04:44:05.733Z,100709.06
2023-08-14T04:45:08.921Z,100707.77
2023-08-14T04:46:12.417Z,100705.47
2023-08-14T04:47:14.871Z,100703.49
2023-08-14T04:48:17.061Z,100708.58
2023-08-14T04:49:19.181Z,100703.57
2023-08-14T04:50:21.648Z,100701.42
2023-08-14T04:51:24.009Z,100708.19
2023-08-14T04:52:26.231Z,100699.66
2023-08-14T04:53:29.559Z,100708.98
2023-08-14T04:54:31.784Z,100710.34
2023-08-14T04:55:34.187Z,100706.19
2023-08-14T04:56:36.743Z,100710.11
2023-08-14T04:57:39.428Z,100703.42
2023-08-14T04:58:44.660Z,100710.86
2023-08-14T04:59:47.010Z,100701.47
2023-08-14T05:00:49.688Z,100708.09
2023-08-14T05:01:52.773Z,100706.45
2023-08-14T05:02:56.470Z,100711.22
2023-08-14T05:03:58.664Z,100711.59
2023-08-14T05:05:02.213Z,100704.89
2023-08-14T05:06:04.577Z,100714.23
2023-08-14T05:07:06.785Z,100713.75
2023-08-14T05:08:09.286Z,100710.56
2023-08-14T05:10:15.717Z,100716.72
2023-08-14T05:11:18.733Z,100714.52
2023-08-14T05:12:20.969Z,100715.91
2023-08-14T05:13:23.140Z,100720.83
2023-08-14T05:14:25.416Z,100718.48
2023-08-14T05:15:27.777Z,100717.17
2023-08-14T05:16:30.165Z,100722.08
2023-08-14T05:17:33.738Z,100714.69
2023-08-14T05:18:36.837Z,100719.41
2023-08-14T05:19:38.957Z,100719.77
2023-08-14T05:20:44.916Z,100724.53
2023-08-14T05:21:47.171Z,100715.96
2023-08-14T05:22:50.353Z,100717.31
2023-08-14T05:23:52.745Z,100722.22
2023-08-14T05:24:55.152Z,100717.23
2023-08-14T05:25:57.305Z,100724.51
2023-08-14T05:26:59.599Z,100727.56
2023-08-14T05:28:01.746Z,100725.20
2023-08-14T05:29:04.009Z,100722.03
2023-08-14T05:30:07.251Z,100720.67
2023-08-14T05:31:09.574Z,100720.02
2023-08-14T05:32:11.667Z,100715.63
2023-08-14T05:33:14.389Z,100717.85
2023-08-14T05:34:16.639Z,100721.75
2023-08-14T05:35:18.793Z,100725.64
2023-08-14T05:36:22.781Z,100725.13
2023-08-14T05:37:25.210Z,100729.88
2023-08-14T05:38:27.424Z,100728.36
2023-08-14T05:39:29.788Z,100726.00
2023-08-14T05:40:32.657Z,100721.95
2023-08-14T05:41:34.919Z,100723.14
2023-08-14T05:42:37.397Z,100723.47
2023-08-14T05:43:39.536Z,100723.14
2023-08-14T05:44:41.905Z,100721.80
2023-08-14T05:45:46.201Z,100723.13
2023-08-14T05:46:49.815Z,100727.88
2023-08-14T05:47:52.640Z,100728.20
2023-08-14T05:48:55.205Z,100721.45
2023-08-14T05:49:57.290Z,100729.23
2023-08-14T05:50:59.551Z,100718.72
2023-08-14T05:52:01.818Z,100719.23
2023-08-14T05:53:05.003Z,100726.83
2023-08-14T05:54:07.249Z,100719.22
2023-08-14T05:55:09.930Z,100722.25
2023-08-14T05:56:12.807Z,100726.28
2023-08-14T05:57:15.080Z,100719.52
2023-08-14T05:58:17.152Z,100727.30
2023-08-14T05:59:19.339Z,100726.80
2023-08-14T06:00:21.936Z,100730.88
2023-08-14T06:01:24.876Z,100734.91
2023-08-14T06:02:27.315Z,100722.72
2023-08-14T06:03:43.516Z,100730.31
2023-08-14T06:04:34.090Z,100730.62
2023-08-14T06:05:36.416Z,100724.52
2023-08-14T06:06:38.874Z,100729.39
2023-08-14T06:07:41.958Z,100729.55
2023-08-14T06:08:44.216Z,100732.77
2023-08-14T06:09:46.437Z,100730.36
2023-08-14T06:10:48.735Z,100732.34
2023-08-14T06:11:50.955Z,100729.12
2023-08-14T06:12:53.153Z,100730.62
2023-08-14T06:13:55.419Z,100735.70
2023-08-14T06:14:57.677Z,100736.00
2023-08-14T06:16:00.084Z,100739.05
2023-08-14T06:17:02.337Z,100726.84
2023-08-14T06:18:05.176Z,100737.99
2023-08-14T06:19:07.630Z,100739.14
2023-08-14T06:20:11.635Z,100738.59
2023-08-14T06:21:13.862Z,100739.25
2023-08-14T06:22:17.599Z,100742.11
2023-08-14T06:23:20.504Z,100748.84
2023-08-14T06:24:22.835Z,100748.32
2023-08-14T06:25:25.186Z,100747.97
2023-08-14T06:26:27.545Z,100746.56
2023-08-14T06:27:29.674Z,100745.19
2023-08-14T06:28:31.868Z,100746.70
2023-08-14T06:29:34.532Z,100745.29
2023-08-14T06:30:36.928Z,100740.55
2023-08-14T06:31:38.937Z,100747.28
2023-08-14T06:32:41.054Z,100750.49
2023-08-14T06:33:43.178Z,100742.15
2023-08-14T06:34:45.630Z,100747.22
2023-08-14T06:35:47.812Z,100746.89
2023-08-14T06:36:50.158Z,100741.09
2023-08-14T06:37:52.352Z,100744.10
2023-08-14T06:38:57.128Z,100747.11
2023-08-14T06:39:58.681Z,100739.45
2023-08-14T06:41:01.063Z,100739.08
2023-08-14T06:42:04.043Z,100744.80
2023-08-14T06:43:06.570Z,100744.06
2023-08-14T06:44:08.839Z,100743.70
2023-08-14T06:45:11.060Z,100743.13
2023-08-14T06:46:14.219Z,100748.37
2023-08-14T06:47:16.551Z,100747.19
2023-08-14T06:48:18.647Z,100745.97
2023-08-14T06:49:20.857Z,100743.90
2023-08-14T06:50:23.108Z,100747.75
2023-08-14T06:51:25.269Z,100748.23
2023-08-14T06:52:27.430Z,100747.66
2023-08-14T06:53:29.581Z,100757.95
2023-08-14T06:54:31.749Z,100751.30
2023-08-14T06:55:33.794Z,100753.52
2023-08-14T06:56:36.368Z,100753.14
2023-08-14T06:57:38.722Z,100755.45
2023-08-14T06:58:40.974Z,100758.66
2023-08-14T06:59:45.743Z,100760.62
2023-08-14T07:00:48.199Z,100749.37
2023-08-14T07:01:50.451Z,100754.23
2023-08-14T07:02:52.677Z,100755.56
2023-08-14T07:03:55.021Z,100756.85
2023-08-14T07:04:57.308Z,100758.17
2023-08-14T07:05:59.427Z,100755.25
2023-08-14T07:07:01.726Z,100748.59
2023-08-14T07:08:04.419Z,100755.52
2023-08-14T07:09:06.556Z,100758.92
2023-08-14T07:10:09.770Z,100756.47
2023-08-14T07:11:11.851Z,100759.83
2023-08-14T07:12:13.916Z,100756.73
2023-08-14T07:13:16.205Z,100750.06
2023-08-14T07:14:18.327Z,100756.83
2023-08-14T07:15:20.701Z,100766.95
2023-08-14T07:16:22.928Z,100761.12
2023-08-14T07:17:25.270Z,100761.77
2023-08-14T07:18:27.411Z,100755.95
2023-08-14T07:19:29.557Z,100764.58
2023-08-14T07:20:31.926Z,100762.33
2023-08-14T07:21:34.440Z,100760.89
2023-08-14T07:22:36.619Z,100759.66
2023-08-14T07:23:38.809Z,100753.83
2023-08-14T07:24:40.934Z,100759.95
2023-08-14T07:25:43.282Z,100762.26
2023-08-14T07:26:45.749Z,100758.98
2023-08-14T07:27:47.949Z,100758.38
2023-08-14T07:28:50.131Z,100766.63
2023-08-14T07:29:52.370Z,100766.42
2023-08-14T07:30:54.859Z,100767.73
2023-08-14T07:31:56.996Z,100758.50
2023-08-14T07:32:59.284Z,100759.36
2023-08-14T07:34:01.520Z,100766.29
2023-08-14T07:35:04.558Z,100762.33
2023-08-14T07:36:07.546Z,100761.30
2023-08-14T07:37:09.739Z,100763.00
2023-08-14T07:38:11.979Z,100761.95
2023-08-14T07:39:14.241Z,100762.58
2023-08-14T07:40:16.501Z,100758.69
2023-08-14T07:41:18.787Z,100762.69
2023-08-14T07:42:21.197Z,100754.59
2023-08-14T07:43:24.218Z,100753.14
2023-08-14T07:44:26.386Z,100756.31
2023-08-14T07:45:28.742Z,100755.92
2023-08-14T07:46:31.315Z,100756.17
2023-08-14T07:47:35.026Z,100759.14
2023-08-14T07:48:37.658Z,100752.91
2023-08-14T07:49:39.931Z,100762.17
2023-08-14T07:50:42.681Z,100755.93
2023-08-14T07:51:45.148Z,100754.30
2023-08-14T07:52:47.395Z,100751.14
2023-08-14T07:53:49.539Z,100756.86
2023-08-14T07:54:51.847Z,100753.95
2023-08-14T07:55:53.980Z,100759.01
2023-08-14T07:56:56.251Z,100755.25
2023-08-14T07:57:58.814Z,100755.03
2023-08-14T07:59:01.027Z,100744.36
2023-08-14T08:00:04.075Z,100756.57
2023-08-14T08:01:08.475Z,100756.17
2023-08-14T08:02:10.673Z,100756.59
2023-08-14T08:03:12.887Z,100764.37
2023-08-14T08:04:26.466Z,100756.81
2023-08-14T08:05:20.737Z,100757.48
2023-08-14T08:06:23.808Z,100748.68
2023-08-14T08:07:26.341Z,100752.48
2023-08-14T08:08:29.016Z,100754.41
2023-08-14T08:09:31.145Z,100756.33
2023-08-14T08:10:33.688Z,100751.95
2023-08-14T08:11:36.176Z,100762.91
2023-08-14T08:12:38.287Z,100754.94
2023-08-14T08:13:40.446Z,100750.14
2023-08-14T08:14:42.514Z,100744.90
2023-08-14T08:15:44.752Z,100754.34
2023-08-14T08:16:47.018Z,100753.09
2023-08-14T08:17:49.408Z,100753.94
2023-08-14T08:18:51.685Z,100754.16
2023-08-14T08:19:53.981Z,100751.42
2023-08-14T08:20:56.630Z,100753.53
2023-08-14T08:21:58.781Z,100756.89
2023-08-14T08:23:01.138Z,100756.48
2023-08-14T08:24:05.752Z,100752.91
2023-08-14T08:25:08.839Z,100753.97
2023-08-14T08:26:11.579Z,100749.13
2023-08-14T08:27:13.852Z,100756.07
2023-08-14T08:28:16.326Z,100751.87
2023-08-14T08:29:18.484Z,100743.04
2023-08-14T08:30:20.803Z,100744.96
2023-08-14T08:31:23.001Z,100747.25
2023-08-14T08:32:25.291Z,100748.53
2023-08-14T08:33:28.161Z,100747.05
2023-08-14T08:34:30.604Z,100755.27
2023-08-14T08:35:32.855Z,100757.17
2023-08-14T08:36:35.119Z,100757.39
2023-08-14T08:37:37.382Z,100756.16
2023-08-14T08:38:41.164Z,100756.16
2023-08-14T08:39:43.941Z,100748.59
2023-08-14T08:40:47.950Z,100758.48
2023-08-14T08:41:50.321Z,100756.59
2023-08-14T08:42:52.574Z,100753.02
2023-08-14T08:44:10.299Z,100753.64
2023-08-14T08:45:13.681Z,100750.72
2023-08-14T08:46:18.010Z,100752.37
2023-08-14T08:47:23.591Z,100749.45
2023-08-14T08:48:27.882Z,100755.31
2023-08-14T08:49:30.335Z,100755.56
2023-08-14T08:50:33.073Z,100756.80
2023-08-14T08:51:35.200Z,100757.01
2023-08-14T08:52:38.201Z,100753.66
2023-08-14T08:53:40.568Z,100754.91
2023-08-14T08:54:42.924Z,100749.88
2023-08-14T08:55:46.444Z,100753.84
2023-08-14T08:56:49.080Z,100756.81
2023-08-14T08:57:53.712Z,100758.47
2023-08-14T08:58:56.223Z,100756.16
2023-08-14T08:59:59.028Z,100756.58
2023-08-14T09:01:02.045Z,100758.50
2023-08-14T09:02:04.494Z,100752.37
2023-08-14T09:03:06.753Z,100758.50
2023-08-14T09:04:09.209Z,100750.07
2023-08-14T09:05:11.494Z,100754.27
2023-08-14T09:06:14.550Z,100762.90
2023-08-14T09:07:16.906Z,100756.17
2023-08-14T09:08:19.065Z,100752.39
2023-08-14T09:09:21.841Z,100748.81
2023-08-14T09:10:24.303Z,100753.86
2023-08-14T09:11:26.865Z,100752.63
2023-08-14T09:12:30.333Z,100752.20
2023-08-14T09:13:33.248Z,100749.23
2023-08-14T09:14:39.257Z,100757.44
2023-08-14T09:16:54.344Z,100746.28
2023-08-14T09:17:56.514Z,100750.89
2023-08-14T09:18:59.646Z,100746.08
2023-08-14T09:20:08.864Z,100749.47
2023-08-14T09:21:07.288Z,100748.20
2023-08-14T09:22:10.776Z,100747.55
2023-08-14T09:23:13.448Z,100744.81
2023-08-14T09:24:15.798Z,100740.58
2023-08-14T09:25:18.471Z,100741.84
2023-08-14T09:26:21.164Z,100743.08
2023-08-14T09:27:24.120Z,100738.69
2023-08-14T09:28:27.529Z,100742.66
2023-08-14T09:29:33.856Z,100739.48
2023-08-14T09:30:36.727Z,100735.25
2023-08-14T09:31:44.218Z,100737.79
2023-08-14T09:32:47.080Z,100735.67
2023-08-14T09:33:49.674Z,100736.28
2023-08-14T09:35:01.752Z,100729.11
2023-08-14T09:36:04.625Z,100726.59
2023-08-14T09:37:07.096Z,100730.77
2023-08-14T09:38:09.348Z,100729.91
2023-08-14T09:39:11.606Z,100722.48
2023-08-14T09:40:18.469Z,100721.01
2023-08-14T09:41:20.726Z,100728.55
2023-08-14T09:42:25.973Z,100736.13
2023-08-14T09:43:30.581Z,100725.80
2023-08-14T09:44:32.729Z,100736.31
2023-08-14T09:45:34.884Z,100731.45
2023-08-14T09:46:37.804Z,100726.58
2023-08-14T09:47:47.757Z,100737.10
2023-08-14T09:48:49.177Z,100734.36
2023-08-14T09:49:55.851Z,100727.40
2023-08-14T09:50:58.992Z,100729.70
2023-08-14T09:52:01.350Z,100725.03
2023-08-14T09:53:03.934Z,100737.27
2023-08-14T09:54:08.919Z,100729.91
2023-08-14T09:55:12.305Z,100730.75
2023-08-14T09:56:16.131Z,100728.45
2023-08-14T09:57:18.584Z,100719.21
2023-08-14T09:58:20.744Z,100724.08
2023-08-14T09:59:23.166Z,100734.86
2023-08-14T10:00:29.327Z,100731.30
2023-08-14T10:01:32.066Z,100732.80
2023-08-14T10:02:35.948Z,100732.58
2023-08-14T10:03:40.306Z,100727.94
2023-08-14T10:04:46.911Z,100722.47
2023-08-14T10:05:49.480Z,100726.23
2023-08-14T10:06:52.540Z,100724.52
2023-08-14T10:07:55.379Z,100735.44
2023-08-14T10:09:01.561Z,100729.73
2023-08-14T10:10:04.146Z,100722.53
2023-08-14T10:11:19.145Z,100725.44
2023-08-14T10:12:16.514Z,100727.58
2023-08-14T10:13:19.395Z,100731.13
2023-08-14T10:14:23.049Z,100719.73
2023-08-14T10:15:27.443Z,100723.31
2023-08-14T10:16:33.672Z,100731.94
2023-08-14T10:17:52.069Z,100729.58
2023-08-14T10:18:55.302Z,100733.80
2023-08-14T10:20:01.368Z,100722.77
2023-08-14T10:21:05.252Z,100726.97
2023-08-14T10:22:08.236Z,100730.31
2023-08-14T10:23:13.053Z,100728.58
2023-08-14T10:24:15.604Z,100731.73
2023-08-14T10:25:18.085Z,100724.75
2023-08-14T10:26:20.742Z,100731.05
2023-08-14T10:27:23.021Z,100727.50
2023-08-14T10:28:25.550Z,100731.89
2023-08-14T10:29:27.833Z,100727.05
2023-08-14T10:30:30.991Z,100725.13
2023-08-14T10:31:34.038Z,100728.55
2023-08-14T10:32:37.194Z,100727.94
2023-08-14T10:33:40.309Z,100727.77
2023-08-14T10:34:43.478Z,100720.36
2023-08-14T10:35:54.643Z,100724.59
2023-08-14T10:36:57.050Z,100720.55
2023-08-14T10:38:09.732Z,100722.83
2023-08-14T10:39:18.165Z,100720.92
2023-08-14T10:40:21.013Z,100723.67
2023-08-14T10:41:23.342Z,100719.64
2023-08-14T10:42:25.570Z,100725.52
2023-08-14T10:43:29.670Z,100719.99
2023-08-14T10:44:36.953Z,100720.59
2023-08-14T10:45:39.107Z,100723.53
2023-08-14T10:46:42.435Z,100710.22
2023-08-14T10:47:45.067Z,100714.81
2023-08-14T10:48:49.475Z,100714.72
2023-08-14T10:49:51.857Z,100717.86
2023-08-14T10:51:00.771Z,100725.64
2023-08-14T10:52:04.098Z,100720.16
2023-08-14T10:53:06.430Z,100718.07
2023-08-14T10:54:15.872Z,100722.34
2023-08-14T10:55:27.312Z,100719.45
2023-08-14T10:56:49.316Z,100713.17
2023-08-14T10:57:52.358Z,100720.19
2023-08-14T10:58:54.757Z,100719.34
2023-08-14T10:59:58.168Z,100707.53
2023-08-14T11:01:05.046Z,100718.05
2023-08-14T11:02:13.310Z,100724.98
2023-08-14T11:03:15.430Z,100720.58
2023-08-14T11:04:17.524Z,100709.82
2023-08-14T11:05:23.273Z,100705.18
2023-08-14T11:07:35.039Z,100699.72
2023-08-14T11:08:37.277Z,100701.30
2023-08-14T11:09:40.103Z,100705.89
2023-08-14T11:10:43.740Z,100708.39
2023-08-14T11:11:48.044Z,100709.23
2023-08-14T11:12:51.162Z,100704.59
2023-08-14T11:13:53.532Z,100716.17
2023-08-14T11:14:55.841Z,100711.32
2023-08-14T11:15:58.061Z,100701.41
2023-08-14T11:17:00.745Z,100701.85
2023-08-14T11:18:04.252Z,100702.91
2023-08-14T11:19:07.407Z,100699.95
2023-08-14T11:20:11.306Z,100704.36
2023-08-14T11:21:30.146Z,100696.97
2023-08-14T11:22:21.140Z,100700.11
2023-08-14T11:23:23.711Z,100700.26
2023-08-14T11:24:26.036Z,100697.66
2023-08-14T11:25:28.527Z,100696.37
2023-08-14T11:26:31.509Z,100690.87
2023-08-14T11:27:33.783Z,100691.13
2023-08-14T11:28:36.194Z,100695.77
2023-08-14T11:29:51.743Z,100691.33
2023-08-14T11:30:42.716Z,100688.38
2023-08-14T11:31:49.498Z,100694.26
2023-08-14T11:32:50.750Z,100691.66
2023-08-14T11:33:53.124Z,100689.52
2023-08-14T11:34:55.543Z,100687.63
2023-08-14T11:36:04.028Z,100688.47
2023-08-14T11:38:08.791Z,100678.87
2023-08-14T11:39:11.214Z,100678.66
2023-08-14T11:40:14.778Z,100681.86
2023-08-14T11:41:30.112Z,100677.39
2023-08-14T11:42:21.699Z,100677.21
2023-08-14T11:43:24.290Z,100674.83
2023-08-14T11:44:27.132Z,100676.90
2023-08-14T11:45:29.807Z,100673.45
2023-08-14T11:46:32.154Z,100675.49
2023-08-14T11:47:42.055Z,100670.39
2023-08-14T11:48:44.870Z,100672.43
2023-08-14T11:49:49.651Z,100678.09
2023-08-14T11:50:52.050Z,100678.44
2023-08-14T11:51:54.238Z,100674.64
2023-08-14T11:52:56.578Z,100678.83
2023-08-14T11:54:00.488Z,100680.52
2023-08-14T11:55:03.154Z,100675.86
2023-08-14T11:56:05.709Z,100675.86
2023-08-14T11:57:07.984Z,100672.73
2023-08-14T11:58:12.984Z,100674.25
2023-08-14T11:59:17.099Z,100678.90
2023-08-14T12:00:27.066Z,100671.97
2023-08-14T12:01:23.806Z,100671.61
2023-08-14T12:02:27.901Z,100670.98
2023-08-14T12:03:31.760Z,100671.23
2023-08-14T12:04:35.609Z,100672.28
2023-08-14T12:05:38.027Z,100667.89
2023-08-14T12:06:40.281Z,100670.39
2023-08-14T12:07:42.452Z,100662.53
2023-08-14T12:08:44.702Z,100659.55
2023-08-14T12:09:48.192Z,100666.48
2023-08-14T12:10:50.654Z,100671.97
2023-08-14T12:11:52.979Z,100669.85